Time;durP1;ratioP1;P1;durP2;ratioP2;P2;SDS_P1;SDS_P2;PMS_P1;PMS_P2;Temp;Humidity;BMP_temperature;BMP_pressure;BME280_temperature;BME280_humidity;BME280_pressure;Samples;Min_cycle;Max_cycle;Signal;HPM_P1;HPM_P2
2023/02/10 00:02:25;;;;;;;13.27;8.32;;;;;;;;;;5050187;28;20040;-61
2023/02/10 00:04:51;;;;;;;12.05;8.15;;;;;;;;;;5050631;28;20082;-68
2023/02/10 00:07:18;;;;;;;10.35;7.95;;;;;;;;;;5050230;28;20033;-61
2023/02/10 00:09:44;;;;;;;12.13;8.45;;;;;;;;;;5050813;28;20025;-61
2023/02/10 00:12:12;;;;;;;14.07;8.20;;;;;;;;;;5051005;28;20060;-67
2023/02/10 00:14:38;;;;;;;12.27;8.20;;;;;;;;;;5050481;28;20211;-67
2023/02/10 00:17:04;;;;;;;13.52;8.65;;;;;;;;;;5050313;28;20100;-67
2023/02/10 00:19:30;;;;;;;9.77;7.65;;;;;;;;;;5050424;28;20103;-66
2023/02/10 00:21:57;;;;;;;11.07;7.63;;;;;;;;;;5050539;28;20055;-69
2023/02/10 00:24:23;;;;;;;11.20;7.97;;;;;;;;;;5050371;28;20501;-68
2023/02/10 00:26:49;;;;;;;12.13;7.97;;;;;;;;;;5049163;28;20037;-65
2023/02/10 00:29:15;;;;;;;10.50;8.00;;;;;;;;;;5049580;28;20090;-64
2023/02/10 00:31:42;;;;;;;12.82;8.43;;;;;;;;;;5050737;28;20477;-67
2023/02/10 00:34:10;;;;;;;10.07;8.13;;;;;;;;;;5050435;28;20460;-64
2023/02/10 00:36:36;;;;;;;12.98;8.65;;;;;;;;;;5050053;28;20029;-64
2023/02/10 00:39:02;;;;;;;10.25;7.70;;;;;;;;;;5050357;28;20018;-64
2023/02/10 00:41:28;;;;;;;11.63;8.68;;;;;;;;;;5051106;28;20024;-63
2023/02/10 00:43:54;;;;;;;11.25;8.13;;;;;;;;;;5054270;28;20128;-66
2023/02/10 00:46:21;;;;;;;12.90;9.50;;;;;;;;;;5053876;28;20047;-68
2023/02/10 00:48:47;;;;;;;10.73;7.93;;;;;;;;;;5054600;28;20108;-69
2023/02/10 00:51:14;;;;;;;12.52;9.35;;;;;;;;;;5054114;28;20384;-68
2023/02/10 00:53:41;;;;;;;11.18;8.05;;;;;;;;;;5054500;28;20031;-60
2023/02/10 00:56:07;;;;;;;12.05;8.25;;;;;;;;;;5054093;28;20025;-67
2023/02/10 00:58:33;;;;;;;11.10;7.75;;;;;;;;;;5053697;28;20032;-61
2023/02/10 01:00:59;;;;;;;11.05;7.93;;;;;;;;;;5053900;28;20024;-61
2023/02/10 01:03:25;;;;;;;10.57;8.20;;;;;;;;;;5053700;28;20029;-67
2023/02/10 01:05:51;;;;;;;11.02;8.48;;;;;;;;;;5053634;28;20040;-64
2023/02/10 01:08:17;;;;;;;13.38;8.55;;;;;;;;;;5052890;28;20382;-69
2023/02/10 01:10:43;;;;;;;12.15;8.40;;;;;;;;;;5054095;28;20031;-68
2023/02/10 01:13:10;;;;;;;11.13;8.02;;;;;;;;;;5053962;28;20028;-68
2023/02/10 01:15:36;;;;;;;10.95;8.38;;;;;;;;;;5053437;28;20375;-63
2023/02/10 01:18:02;;;;;;;12.07;8.70;;;;;;;;;;5053566;28;20021;-61
2023/02/10 01:20:28;;;;;;;10.07;7.63;;;;;;;;;;5053387;28;20029;-63
2023/02/10 01:22:54;;;;;;;11.20;8.45;;;;;;;;;;5052995;28;20535;-70
2023/02/10 01:25:20;;;;;;;13.40;8.43;;;;;;;;;;5053279;28;20067;-63
2023/02/10 01:27:46;;;;;;;9.70;8.05;;;;;;;;;;5053375;28;20064;-69
2023/02/10 01:30:12;;;;;;;9.82;7.82;;;;;;;;;;5053805;28;20028;-70
2023/02/10 01:32:38;;;;;;;12.60;9.27;;;;;;;;;;5053136;28;20163;-60
2023/02/10 01:35:04;;;;;;;10.30;8.20;;;;;;;;;;5053316;28;20103;-60
2023/02/10 01:37:30;;;;;;;11.15;8.98;;;;;;;;;;5052577;28;20033;-63
2023/02/10 01:39:56;;;;;;;12.15;9.05;;;;;;;;;;5053185;28;20461;-67
2023/02/10 01:42:22;;;;;;;13.55;8.30;;;;;;;;;;5052952;28;20036;-62
2023/02/10 01:44:48;;;;;;;12.40;8.57;;;;;;;;;;5053107;28;20500;-69
2023/02/10 01:47:14;;;;;;;10.38;8.43;;;;;;;;;;5052822;28;20047;-61
2023/02/10 01:49:44;;;;;;;12.68;9.18;;;;;;;;;;5053245;28;20017;-63
2023/02/10 01:52:12;;;;;;;13.40;9.70;;;;;;;;;;5052498;28;20033;-63
2023/02/10 01:54:41;;;;;;;11.75;8.88;;;;;;;;;;5052705;28;20043;-66
2023/02/10 01:57:07;;;;;;;9.82;7.88;;;;;;;;;;5052938;28;20021;-61
2023/02/10 01:59:35;;;;;;;13.48;9.15;;;;;;;;;;5052661;28;20580;-64
2023/02/10 02:02:06;;;;;;;11.07;8.52;;;;;;;;;;5053013;28;20025;-61
2023/02/10 02:04:35;;;;;;;11.75;8.60;;;;;;;;;;5052682;28;20029;-61
2023/02/10 02:07:01;;;;;;;13.48;9.30;;;;;;;;;;5051466;28;20120;-60
2023/02/10 02:09:27;;;;;;;10.63;8.38;;;;;;;;;;5052521;28;20096;-60
2023/02/10 02:12:11;;;;;;;13.77;9.77;;;;;;;;;;5052547;28;20029;-61
2023/02/10 02:14:43;;;;;;;11.38;8.57;;;;;;;;;;5052082;28;20025;-60
2023/02/10 02:17:18;;;;;;;11.88;8.75;;;;;;;;;;5052706;28;20040;-60
2023/02/10 02:23:07;;;;;;;11.02;8.77;;;;;;;;;;5052620;28;20079;-69
2023/02/10 02:25:47;;;;;;;11.57;9.05;;;;;;;;;;5052105;28;20510;-61
2023/02/10 02:28:34;;;;;;;14.38;9.60;;;;;;;;;;5052284;28;20481;-60
2023/02/10 02:31:06;;;;;;;13.43;9.70;;;;;;;;;;5052049;28;20060;-60
2023/02/10 02:33:33;;;;;;;13.00;8.27;;;;;;;;;;5051903;28;20159;-60
2023/02/10 02:36:06;;;;;;;13.05;8.63;;;;;;;;;;5052192;28;20035;-61
2023/02/10 02:38:38;;;;;;;14.60;9.35;;;;;;;;;;5051602;28;20104;-68
2023/02/10 02:41:04;;;;;;;11.40;8.73;;;;;;;;;;5052095;28;20106;-68
2023/02/10 02:43:30;;;;;;;10.25;8.30;;;;;;;;;;5051791;28;20045;-61
2023/02/10 02:46:00;;;;;;;11.15;8.43;;;;;;;;;;5051874;28;20040;-68
2023/02/10 02:48:32;;;;;;;11.98;9.60;;;;;;;;;;5051815;28;20032;-60
2023/02/10 02:51:03;;;;;;;10.65;8.30;;;;;;;;;;5051455;28;20032;-65
2023/02/10 02:53:38;;;;;;;13.85;9.77;;;;;;;;;;5051708;28;20053;-67
2023/02/10 02:56:14;;;;;;;12.80;8.67;;;;;;;;;;5051760;28;20033;-63
2023/02/10 02:58:40;;;;;;;;;;;;;;;;;;5052603;28;20280;-61
2023/02/10 03:01:10;;;;;;;10.68;8.25;;;;;;;;;;5051728;28;19943;-66
2023/02/10 03:03:36;;;;;;;12.32;9.05;;;;;;;;;;5051232;28;20025;-60
2023/02/10 03:06:03;;;;;;;10.80;8.52;;;;;;;;;;5050522;28;20041;-68
2023/02/10 03:08:30;;;;;;;10.82;8.73;;;;;;;;;;5051486;28;20469;-61
2023/02/10 03:10:56;;;;;;;11.38;9.02;;;;;;;;;;5051354;28;20029;-69
2023/02/10 03:13:22;;;;;;;10.40;8.20;;;;;;;;;;5051225;28;20025;-68
2023/02/10 03:15:48;;;;;;;10.68;8.38;;;;;;;;;;5050979;28;20452;-68
2023/02/10 03:18:15;;;;;;;11.07;8.20;;;;;;;;;;5051106;28;20029;-64
2023/02/10 03:20:41;;;;;;;11.65;8.45;;;;;;;;;;5051623;28;20029;-69
2023/02/10 03:23:07;;;;;;;10.95;9.07;;;;;;;;;;5051202;28;20021;-66
2023/02/10 03:25:33;;;;;;;10.55;8.52;;;;;;;;;;5051102;28;20364;-65
2023/02/10 03:27:59;;;;;;;10.90;8.05;;;;;;;;;;5051223;28;20029;-69
2023/02/10 03:30:25;;;;;;;11.00;9.05;;;;;;;;;;5050616;28;20040;-60
2023/02/10 03:32:53;;;;;;;10.65;8.68;;;;;;;;;;5051105;28;20025;-65
2023/02/10 03:35:19;;;;;;;11.32;7.78;;;;;;;;;;5050944;28;20033;-62
2023/02/10 03:37:45;;;;;;;10.40;8.35;;;;;;;;;;5051172;28;20143;-67
2023/02/10 03:40:11;;;;;;;10.95;8.25;;;;;;;;;;5051243;28;20035;-67
2023/02/10 03:42:37;;;;;;;10.18;8.23;;;;;;;;;;5050782;28;20024;-67
2023/02/10 03:45:03;;;;;;;11.15;8.55;;;;;;;;;;5050649;28;20440;-61
2023/02/10 03:47:29;;;;;;;11.48;8.23;;;;;;;;;;5050566;28;20037;-69
2023/02/10 03:49:55;;;;;;;10.60;7.85;;;;;;;;;;5050736;28;20027;-61
2023/02/10 03:52:21;;;;;;;10.40;8.10;;;;;;;;;;5050766;28;20032;-61
2023/02/10 03:54:47;;;;;;;10.55;8.05;;;;;;;;;;5050865;28;20466;-60
2023/02/10 03:57:13;;;;;;;10.43;8.10;;;;;;;;;;5050820;28;20036;-64
2023/02/10 03:59:39;;;;;;;11.02;7.80;;;;;;;;;;5051019;28;20029;-60
2023/02/10 04:02:05;;;;;;;11.05;8.82;;;;;;;;;;5050671;28;20082;-61
2023/02/10 04:04:31;;;;;;;11.48;8.18;;;;;;;;;;5050467;28;20025;-60
2023/02/10 04:06:57;;;;;;;10.68;7.60;;;;;;;;;;5050703;28;20404;-61
2023/02/10 04:09:23;;;;;;;11.32;7.90;;;;;;;;;;5050507;28;20029;-61
2023/02/10 04:11:49;;;;;;;11.35;8.40;;;;;;;;;;5050486;28;20037;-64
2023/02/10 04:14:15;;;;;;;10.90;8.18;;;;;;;;;;5050561;28;20021;-61
2023/02/10 04:16:41;;;;;;;12.20;8.77;;;;;;;;;;5052171;28;20366;-69
2023/02/10 04:19:07;;;;;;;11.02;8.85;;;;;;;;;;5054716;28;20017;-61
2023/02/10 04:21:33;;;;;;;11.10;8.30;;;;;;;;;;5054456;28;20024;-64
2023/02/10 04:23:59;;;;;;;11.82;7.90;;;;;;;;;;5054507;28;20029;-61
2023/02/10 04:26:25;;;;;;;11.25;7.95;;;;;;;;;;5054095;28;20477;-66
2023/02/10 04:28:51;;;;;;;10.70;7.97;;;;;;;;;;5054558;28;20108;-65
2023/02/10 04:31:17;;;;;;;11.10;8.60;;;;;;;;;;5054363;28;20025;-60
2023/02/10 04:33:43;;;;;;;13.50;8.38;;;;;;;;;;5054752;28;20021;-61
2023/02/10 04:36:09;;;;;;;11.07;8.63;;;;;;;;;;5054836;28;20032;-68
2023/02/10 04:38:35;;;;;;;9.80;7.25;;;;;;;;;;5054194;28;20025;-60
2023/02/10 04:41:02;;;;;;;11.57;8.55;;;;;;;;;;5054045;28;20029;-62
2023/02/10 04:43:28;;;;;;;10.00;7.68;;;;;;;;;;5054087;28;20040;-64
2023/02/10 04:45:54;;;;;;;10.27;8.02;;;;;;;;;;5054237;28;20100;-69
2023/02/10 04:48:21;;;;;;;9.68;8.23;;;;;;;;;;5053960;28;20098;-60
2023/02/10 04:50:47;;;;;;;11.35;8.10;;;;;;;;;;5053667;28;20087;-61
2023/02/10 04:53:13;;;;;;;10.13;8.15;;;;;;;;;;5054473;28;20029;-69
2023/02/10 04:55:39;;;;;;;11.93;8.38;;;;;;;;;;5053886;28;20032;-69
2023/02/10 04:58:06;;;;;;;10.80;8.05;;;;;;;;;;5054077;28;20052;-62
2023/02/10 05:00:32;;;;;;;10.77;8.20;;;;;;;;;;5053797;28;20024;-60
2023/02/10 05:02:58;;;;;;;9.07;7.80;;;;;;;;;;5053924;28;20037;-60
2023/02/10 05:05:25;;;;;;;10.13;7.93;;;;;;;;;;5053150;28;20021;-66
2023/02/10 05:07:51;;;;;;;11.32;8.35;;;;;;;;;;5053893;28;20036;-60
2023/02/10 05:10:17;;;;;;;10.32;8.20;;;;;;;;;;5052713;28;20060;-68
2023/02/10 05:12:43;;;;;;;11.68;8.10;;;;;;;;;;5054074;28;20048;-60
2023/02/10 05:15:12;;;;;;;10.98;8.20;;;;;;;;;;5054133;28;20418;-60
2023/02/10 05:17:38;;;;;;;11.70;7.70;;;;;;;;;;5053399;28;20033;-68
2023/02/10 05:20:04;;;;;;;9.05;7.43;;;;;;;;;;5053578;28;20040;-68
2023/02/10 05:22:30;;;;;;;10.43;8.25;;;;;;;;;;5053113;28;20096;-60
2023/02/10 05:24:57;;;;;;;9.95;7.63;;;;;;;;;;5053549;28;20108;-62
2023/02/10 05:27:24;;;;;;;11.13;8.20;;;;;;;;;;5052611;28;20127;-63
2023/02/10 05:29:50;;;;;;;10.15;7.95;;;;;;;;;;5053535;28;20064;-62
2023/02/10 05:32:16;;;;;;;10.52;8.15;;;;;;;;;;5053188;28;20021;-70
2023/02/10 05:34:42;;;;;;;10.00;7.95;;;;;;;;;;5053087;28;20024;-65
2023/02/10 05:37:08;;;;;;;12.05;7.47;;;;;;;;;;5053316;28;20555;-68
2023/02/10 05:39:34;;;;;;;10.77;7.85;;;;;;;;;;5052982;28;20363;-68
2023/02/10 05:42:00;;;;;;;10.85;7.75;;;;;;;;;;5053566;28;20470;-67
2023/02/10 05:44:27;;;;;;;10.57;7.65;;;;;;;;;;5053055;28;20021;-65
2023/02/10 05:46:53;;;;;;;9.93;7.43;;;;;;;;;;5053003;28;20060;-62
2023/02/10 05:49:19;;;;;;;9.38;7.45;;;;;;;;;;5052313;28;20106;-61
2023/02/10 05:51:45;;;;;;;9.07;7.40;;;;;;;;;;5053175;28;20493;-60
2023/02/10 05:54:12;;;;;;;8.80;7.32;;;;;;;;;;5053334;28;20401;-60
2023/02/10 05:56:38;;;;;;;12.40;7.28;;;;;;;;;;5052841;28;20051;-60
2023/02/10 05:59:04;;;;;;;9.15;7.43;;;;;;;;;;5052974;28;20044;-60
2023/02/10 06:01:30;;;;;;;9.30;6.88;;;;;;;;;;5052356;28;20037;-62
2023/02/10 06:03:56;;;;;;;11.10;7.20;;;;;;;;;;5035378;28;20029;-60
2023/02/10 06:06:22;;;;;;;11.38;7.18;;;;;;;;;;5052586;28;20469;-61
2023/02/10 06:08:48;;;;;;;8.73;6.40;;;;;;;;;;5052593;28;20036;-61
2023/02/10 06:11:14;;;;;;;10.32;8.00;;;;;;;;;;5034011;28;20390;-62
2023/02/10 06:13:41;;;;;;;9.48;7.72;;;;;;;;;;5052432;28;20036;-61
2023/02/10 06:16:08;;;;;;;9.93;7.22;;;;;;;;;;5051679;28;20035;-63
2023/02/10 06:18:34;;;;;;;9.68;7.43;;;;;;;;;;5041651;28;20128;-60
2023/02/10 06:21:00;;;;;;;10.25;6.97;;;;;;;;;;5052422;28;20029;-63
2023/02/10 06:23:26;;;;;;;8.10;6.65;;;;;;;;;;5052495;28;20037;-61
2023/02/10 06:25:54;;;;;;;9.02;7.20;;;;;;;;;;5052629;28;20057;-63
2023/02/10 06:28:22;;;;;;;8.60;6.68;;;;;;;;;;5052208;28;20037;-59
2023/02/10 06:30:48;;;;;;;10.95;7.13;;;;;;;;;;5052672;28;20025;-60
2023/02/10 06:33:14;;;;;;;10.35;6.88;;;;;;;;;;5051737;28;20025;-60
2023/02/10 06:35:40;;;;;;;10.15;7.25;;;;;;;;;;5052083;28;20056;-60
2023/02/10 06:38:06;;;;;;;8.52;6.72;;;;;;;;;;5051961;28;20062;-62
2023/02/10 06:40:32;;;;;;;10.38;7.35;;;;;;;;;;5051268;28;20449;-60
2023/02/10 06:42:58;;;;;;;12.00;7.47;;;;;;;;;;5052162;28;20036;-60
2023/02/10 06:45:24;;;;;;;8.50;6.53;;;;;;;;;;5052279;28;20381;-61
2023/02/10 06:47:50;;;;;;;9.55;6.60;;;;;;;;;;5052161;28;20106;-60
2023/02/10 06:50:17;;;;;;;10.32;6.80;;;;;;;;;;5051705;28;20512;-60
2023/02/10 06:52:43;;;;;;;10.77;7.38;;;;;;;;;;5051927;28;20504;-60
2023/02/10 06:55:09;;;;;;;10.95;6.93;;;;;;;;;;5049472;28;20036;-60
2023/02/10 06:57:35;;;;;;;14.43;7.25;;;;;;;;;;5047183;28;20540;-63
2023/02/10 07:00:07;;;;;;;10.75;7.38;;;;;;;;;;5049118;28;20520;-60
2023/02/10 07:02:33;;;;;;;10.48;6.65;;;;;;;;;;5050167;28;20024;-60
2023/02/10 07:04:59;;;;;;;8.43;6.68;;;;;;;;;;5051795;28;20462;-61
2023/02/10 07:07:25;;;;;;;9.48;6.95;;;;;;;;;;5051336;28;20041;-60
2023/02/10 07:09:53;;;;;;;11.15;7.30;;;;;;;;;;5052005;28;20083;-62
2023/02/10 07:12:19;;;;;;;10.70;6.65;;;;;;;;;;5051463;28;20120;-61
2023/02/10 07:14:45;;;;;;;10.73;6.90;;;;;;;;;;5051274;28;20051;-61
2023/02/10 07:17:11;;;;;;;9.82;7.53;;;;;;;;;;5050942;28;20029;-62
2023/02/10 07:19:37;;;;;;;12.20;7.82;;;;;;;;;;5051356;28;20083;-63
2023/02/10 07:22:06;;;;;;;9.70;6.47;;;;;;;;;;5051613;28;20515;-62
2023/02/10 07:24:32;;;;;;;9.98;7.65;;;;;;;;;;5051248;28;20103;-61
2023/02/10 07:26:58;;;;;;;9.98;7.93;;;;;;;;;;5051423;28;20406;-61
2023/02/10 07:29:24;;;;;;;11.77;7.78;;;;;;;;;;5051044;28;20070;-61
2023/02/10 07:31:50;;;;;;;9.43;7.50;;;;;;;;;;5050313;28;20390;-61
2023/02/10 07:34:19;;;;;;;10.63;6.82;;;;;;;;;;5050405;28;20126;-62
2023/02/10 07:36:45;;;;;;;9.45;6.68;;;;;;;;;;5050918;28;20025;-67
2023/02/10 07:39:11;;;;;;;8.32;6.88;;;;;;;;;;5050293;28;20031;-62
2023/02/10 07:41:37;;;;;;;10.88;7.85;;;;;;;;;;5050349;28;20017;-68
2023/02/10 07:44:03;;;;;;;11.32;7.57;;;;;;;;;;5049953;28;20025;-64
2023/02/10 07:46:29;;;;;;;9.38;7.57;;;;;;;;;;5050924;28;20171;-62
2023/02/10 07:48:55;;;;;;;10.32;6.78;;;;;;;;;;5050101;28;20500;-64
2023/02/10 07:51:21;;;;;;;9.30;6.75;;;;;;;;;;5050808;28;20104;-61
2023/02/10 07:53:47;;;;;;;10.27;7.63;;;;;;;;;;5050741;28;20481;-66
2023/02/10 07:56:13;;;;;;;10.93;7.25;;;;;;;;;;5051309;28;20096;-66
2023/02/10 07:58:39;;;;;;;11.60;7.35;;;;;;;;;;5051324;28;20035;-69
2023/02/10 08:01:06;;;;;;;10.65;6.50;;;;;;;;;;5051052;28;20021;-69
2023/02/10 08:03:32;;;;;;;10.05;6.35;;;;;;;;;;5050771;28;20124;-66
2023/02/10 08:05:58;;;;;;;10.07;7.10;;;;;;;;;;5050286;28;20505;-67
2023/02/10 08:08:24;;;;;;;11.50;7.30;;;;;;;;;;5050603;28;20029;-67
2023/02/10 08:10:50;;;;;;;8.32;6.88;;;;;;;;;;5051057;28;20053;-65
2023/02/10 08:13:16;;;;;;;10.55;7.25;;;;;;;;;;5050768;28;20036;-68
2023/02/10 08:15:42;;;;;;;11.07;7.28;;;;;;;;;;5051299;28;20025;-69
2023/02/10 08:18:08;;;;;;;11.63;7.18;;;;;;;;;;5050899;28;20077;-64
2023/02/10 08:20:34;;;;;;;10.70;8.07;;;;;;;;;;5050337;28;20537;-69
2023/02/10 08:23:00;;;;;;;10.02;7.03;;;;;;;;;;5050885;28;20029;-67
2023/02/10 08:25:26;;;;;;;9.82;7.70;;;;;;;;;;5050625;28;20025;-65
2023/02/10 08:27:52;;;;;;;9.48;7.28;;;;;;;;;;5050740;28;20080;-69
2023/02/10 08:30:18;;;;;;;9.68;7.10;;;;;;;;;;5050495;28;20061;-68
2023/02/10 08:32:44;;;;;;;10.65;7.63;;;;;;;;;;5050781;28;20504;-67
2023/02/10 08:35:11;;;;;;;10.98;7.88;;;;;;;;;;5050778;28;20096;-69
2023/02/10 08:37:37;;;;;;;10.45;7.20;;;;;;;;;;5049845;28;20060;-66
2023/02/10 08:40:05;;;;;;;9.70;7.20;;;;;;;;;;5049954;28;20032;-69
2023/02/10 08:42:31;;;;;;;9.85;7.00;;;;;;;;;;5050605;28;20036;-68
2023/02/10 08:44:58;;;;;;;9.98;7.47;;;;;;;;;;5050665;28;20017;-69
2023/02/10 08:47:23;;;;;;;11.57;7.70;;;;;;;;;;5050333;28;20493;-62
2023/02/10 08:49:50;;;;;;;10.68;7.25;;;;;;;;;;5050039;28;20025;-69
2023/02/10 08:52:16;;;;;;;9.68;7.25;;;;;;;;;;5050110;28;20017;-63
2023/02/10 08:54:42;;;;;;;10.50;7.55;;;;;;;;;;5050816;28;20027;-71
2023/02/10 08:57:09;;;;;;;10.27;7.20;;;;;;;;;;5050544;28;20104;-68
2023/02/10 08:59:35;;;;;;;11.38;8.35;;;;;;;;;;5048901;28;20469;-65
2023/02/10 09:02:02;;;;;;;12.32;7.68;;;;;;;;;;5050436;28;20058;-62
2023/02/10 09:04:28;;;;;;;10.15;7.22;;;;;;;;;;5053638;28;20025;-66
2023/02/10 09:06:54;;;;;;;10.73;7.63;;;;;;;;;;5053197;28;20028;-66
2023/02/10 09:09:22;;;;;;;9.95;7.30;;;;;;;;;;5053239;28;20037;-66
2023/02/10 09:11:48;;;;;;;8.90;6.97;;;;;;;;;;5054032;28;20029;-69
2023/02/10 09:14:14;;;;;;;11.85;7.40;;;;;;;;;;5054018;28;20033;-62
2023/02/10 09:16:40;;;;;;;10.40;7.72;;;;;;;;;;5054262;28;20017;-70
2023/02/10 09:19:06;;;;;;;9.30;7.35;;;;;;;;;;5053353;28;20033;-63
2023/02/10 09:21:33;;;;;;;11.27;8.15;;;;;;;;;;5053543;28;20029;-63
2023/02/10 09:23:59;;;;;;;10.73;8.38;;;;;;;;;;5053770;28;20029;-66
2023/02/10 09:26:24;;;;;;;10.90;7.68;;;;;;;;;;5053493;28;20028;-71
2023/02/10 09:28:50;;;;;;;12.25;8.20;;;;;;;;;;5052849;28;20131;-71
2023/02/10 09:31:17;;;;;;;10.70;8.13;;;;;;;;;;5052604;28;20017;-69
2023/02/10 09:33:44;;;;;;;10.48;7.78;;;;;;;;;;5053956;28;20055;-71
2023/02/10 09:36:17;;;;;;;13.07;8.27;;;;;;;;;;5053551;28;20017;-70
2023/02/10 09:38:43;;;;;;;14.75;8.27;;;;;;;;;;5053864;28;20029;-69
2023/02/10 09:41:18;;;;;;;12.75;9.25;;;;;;;;;;5053986;28;20017;-72
2023/02/10 09:43:47;;;;;;;12.60;8.55;;;;;;;;;;5053559;28;20079;-65
2023/02/10 09:46:17;;;;;;;12.95;8.30;;;;;;;;;;5052993;28;20036;-72
2023/02/10 09:49:01;;;;;;;10.73;6.97;;;;;;;;;;5053599;28;20021;-71
2023/02/10 09:51:30;;;;;;;10.77;8.07;;;;;;;;;;5053186;28;20358;-71
2023/02/10 09:53:56;;;;;;;9.65;7.40;;;;;;;;;;5053266;28;20035;-71
2023/02/10 09:56:22;;;;;;;11.70;8.52;;;;;;;;;;5052981;28;20104;-72
2023/02/10 09:58:53;;;;;;;12.65;8.85;;;;;;;;;;5053093;28;20053;-70
2023/02/10 10:01:35;;;;;;;12.38;8.65;;;;;;;;;;5052488;28;20043;-71
2023/02/10 10:04:20;;;;;;;12.30;8.70;;;;;;;;;;5053115;28;20025;-71
2023/02/10 10:06:49;;;;;;;12.00;9.20;;;;;;;;;;5053013;28;20033;-72
2023/02/10 10:09:17;;;;;;;12.65;8.35;;;;;;;;;;5052805;28;20505;-71
2023/02/10 10:11:43;;;;;;;14.40;8.23;;;;;;;;;;5053050;28;20021;-72
2023/02/10 10:14:29;;;;;;;12.50;7.90;;;;;;;;;;5051415;28;20518;-70
2023/02/10 10:16:55;;;;;;;12.07;8.63;;;;;;;;;;5052796;28;20029;-72
2023/02/10 10:19:21;;;;;;;12.85;8.85;;;;;;;;;;5052656;28;20028;-71
2023/02/10 10:21:52;;;;;;;12.98;7.93;;;;;;;;;;5052812;28;20029;-71
2023/02/10 10:24:34;;;;;;;12.60;8.48;;;;;;;;;;5051940;28;20029;-66
2023/02/10 10:27:20;;;;;;;13.52;8.80;;;;;;;;;;5052266;28;20562;-71
2023/02/10 10:29:52;;;;;;;11.65;8.07;;;;;;;;;;5002669;28;20461;-71
2023/02/10 10:32:21;;;;;;;11.32;7.40;;;;;;;;;;5052139;28;20507;-71
2023/02/10 10:34:51;;;;;;;11.40;7.75;;;;;;;;;;5052410;28;20417;-67
2023/02/10 10:37:19;;;;;;;12.65;8.55;;;;;;;;;;5052075;28;20405;-63
2023/02/10 10:39:47;;;;;;;11.63;8.15;;;;;;;;;;5051692;28;20040;-66
2023/02/10 10:42:13;;;;;;;13.18;7.97;;;;;;;;;;5052593;28;20025;-70
2023/02/10 10:44:39;;;;;;;12.00;8.45;;;;;;;;;;5052106;28;20576;-66
2023/02/10 10:47:14;;;;;;;11.38;8.52;;;;;;;;;;5052085;28;20040;-70
2023/02/10 10:49:40;;;;;;;12.07;8.88;;;;;;;;;;5052604;28;20099;-72
2023/02/10 10:52:23;;;;;;;13.65;8.70;;;;;;;;;;5052156;28;20029;-71
2023/02/10 10:54:49;;;;;;;11.38;8.27;;;;;;;;;;5039674;28;20021;-61
2023/02/10 10:57:17;;;;;;;13.15;8.50;;;;;;;;;;5051496;28;20382;-69
2023/02/10 10:59:46;;;;;;;11.30;8.23;;;;;;;;;;5052413;28;20155;-67
2023/02/10 11:02:16;;;;;;;12.10;8.43;;;;;;;;;;5052257;28;20603;-66
2023/02/10 11:04:45;;;;;;;12.00;8.20;;;;;;;;;;5051295;28;20033;-72
2023/02/10 11:07:13;;;;;;;10.27;7.40;;;;;;;;;;5051329;28;20037;-71
2023/02/10 11:09:48;;;;;;;13.02;8.40;;;;;;;;;;5051569;28;20033;-71
2023/02/10 11:12:17;;;;;;;12.75;7.82;;;;;;;;;;5051625;28;20029;-66
2023/02/10 11:14:45;;;;;;;12.35;8.70;;;;;;;;;;5051911;28;20100;-70
2023/02/10 11:17:19;;;;;;;14.43;9.00;;;;;;;;;;5050516;28;20066;-68
2023/02/10 11:19:53;;;;;;;11.65;8.30;;;;;;;;;;5049858;28;20029;-63
2023/02/10 11:22:21;;;;;;;11.40;7.95;;;;;;;;;;5050829;28;20024;-68
2023/02/10 11:24:52;;;;;;;9.85;7.00;;;;;;;;;;5050710;28;20033;-68
2023/02/10 11:27:18;;;;;;;10.35;7.32;;;;;;;;;;5050596;28;20052;-64
2023/02/10 11:29:49;;;;;;;9.93;7.57;;;;;;;;;;5050926;28;20024;-65
2023/02/10 11:32:20;;;;;;;10.18;7.50;;;;;;;;;;5050257;28;20037;-61
2023/02/10 11:34:49;;;;;;;12.23;8.18;;;;;;;;;;5050939;28;20013;-62
2023/02/10 11:37:43;;;;;;;13.52;7.53;;;;;;;;;;5050910;28;20031;-61
2023/02/10 11:40:18;;;;;;;13.75;7.50;;;;;;;;;;5047612;28;20079;-64
2023/02/10 11:42:47;;;;;;;11.80;7.95;;;;;;;;;;5050967;28;20029;-62
2023/02/10 11:45:16;;;;;;;13.48;8.52;;;;;;;;;;5050146;28;20036;-68
2023/02/10 11:47:42;;;;;;;13.57;9.15;;;;;;;;;;5050578;28;20033;-60
2023/02/10 11:50:22;;;;;;;13.40;9.85;;;;;;;;;;5050708;28;20100;-60
2023/02/10 11:52:48;;;;;;;18.70;10.77;;;;;;;;;;5051026;28;20031;-68
2023/02/10 11:55:15;;;;;;;17.85;10.90;;;;;;;;;;5051144;28;20028;-61
2023/02/10 12:00:38;;;;;;;20.48;12.73;;;;;;;;;;5050865;28;20059;-71
2023/02/10 12:03:22;;;;;;;17.95;11.75;;;;;;;;;;5050687;28;20029;-66
2023/02/10 12:06:08;;;;;;;19.88;12.13;;;;;;;;;;5050819;28;20095;-74
2023/02/10 12:08:41;;;;;;;18.52;12.25;;;;;;;;;;5050285;28;20563;-67
2023/02/10 12:11:10;;;;;;;18.73;11.63;;;;;;;;;;5050874;28;20075;-67
2023/02/10 12:13:55;;;;;;;16.05;11.05;;;;;;;;;;5049002;28;20094;-68
2023/02/10 12:16:31;;;;;;;18.50;11.43;;;;;;;;;;5049623;28;20033;-67
2023/02/10 12:18:59;;;;;;;15.27;10.70;;;;;;;;;;5050719;28;20048;-68
2023/02/10 12:21:26;;;;;;;14.85;8.82;;;;;;;;;;5049867;28;20040;-67
2023/02/10 12:24:04;;;;;;;16.70;9.30;;;;;;;;;;5050889;28;20033;-67
2023/02/10 12:26:50;;;;;;;13.98;9.32;;;;;;;;;;5049487;28;20121;-68
2023/02/10 12:29:25;;;;;;;15.73;9.75;;;;;;;;;;5049511;28;20068;-67
2023/02/10 12:32:04;;;;;;;11.57;8.40;;;;;;;;;;5049818;28;20032;-67
2023/02/10 12:34:30;;;;;;;16.52;8.95;;;;;;;;;;5048888;28;20029;-67
2023/02/10 12:37:19;;;;;;;11.65;8.23;;;;;;;;;;5050747;28;20055;-68
2023/02/10 12:39:45;;;;;;;12.85;8.57;;;;;;;;;;5054495;28;20021;-66
2023/02/10 12:42:21;;;;;;;11.73;7.50;;;;;;;;;;5054492;28;20032;-67
2023/02/10 12:44:53;;;;;;;12.77;7.50;;;;;;;;;;5054479;28;20024;-68
2023/02/10 12:47:28;;;;;;;12.07;7.53;;;;;;;;;;5054165;28;20083;-66
2023/02/10 12:50:06;;;;;;;13.00;7.90;;;;;;;;;;5054393;28;20028;-67
2023/02/10 12:52:38;;;;;;;11.02;6.82;;;;;;;;;;5054158;28;20090;-66
2023/02/10 12:55:18;;;;;;;11.40;7.68;;;;;;;;;;5054328;28;20029;-67
2023/02/10 12:57:50;;;;;;;12.73;6.95;;;;;;;;;;5054375;28;20036;-63
2023/02/10 13:00:27;;;;;;;11.45;7.10;;;;;;;;;;5054088;28;20029;-67
2023/02/10 13:03:03;;;;;;;14.38;6.90;;;;;;;;;;5049149;28;20021;-66
2023/02/10 13:05:29;;;;;;;;;;;;;;;;;;5050039;28;20025;-65
2023/02/10 13:08:04;;;;;;;12.73;6.13;;;;;;;;;;5053302;28;19917;-67
2023/02/10 13:10:35;;;;;;;8.63;6.10;;;;;;;;;;5053814;28;20029;-66
2023/02/10 13:13:05;;;;;;;10.43;5.70;;;;;;;;;;5053557;28;20047;-67
2023/02/10 13:15:38;;;;;;;10.68;6.47;;;;;;;;;;5053861;28;20029;-68
2023/02/10 13:18:14;;;;;;;9.27;6.50;;;;;;;;;;5053749;28;20021;-67
2023/02/10 13:20:49;;;;;;;8.25;5.55;;;;;;;;;;5050737;28;20029;-62
2023/02/10 13:23:34;;;;;;;7.63;5.37;;;;;;;;;;5052164;28;20500;-67
2023/02/10 13:26:23;;;;;;;8.27;5.30;;;;;;;;;;5053792;28;20375;-67
2023/02/10 13:29:01;;;;;;;8.73;5.47;;;;;;;;;;5006707;28;20053;-62
2023/02/10 13:31:47;;;;;;;9.15;4.72;;;;;;;;;;5052742;28;20031;-65
2023/02/10 13:34:22;;;;;;;8.95;6.70;;;;;;;;;;5053280;28;20596;-67
2023/02/10 13:36:52;;;;;;;10.05;5.53;;;;;;;;;;5052855;28;20489;-67
2023/02/10 13:39:19;;;;;;;6.90;4.70;;;;;;;;;;5052762;28;20405;-67
2023/02/10 13:41:50;;;;;;;8.27;4.97;;;;;;;;;;5053209;28;20481;-65
2023/02/10 13:44:29;;;;;;;8.30;4.90;;;;;;;;;;5053144;28;20044;-67
2023/02/10 13:46:59;;;;;;;7.80;5.07;;;;;;;;;;5052604;28;20400;-67
2023/02/10 13:49:25;;;;;;;9.02;5.18;;;;;;;;;;5052549;28;20036;-67
2023/02/10 13:51:59;;;;;;;9.40;5.68;;;;;;;;;;5053370;28;20037;-65
2023/02/10 13:54:29;;;;;;;7.63;4.70;;;;;;;;;;5052515;28;20017;-66
2023/02/10 13:56:56;;;;;;;7.50;5.35;;;;;;;;;;5052298;28;20107;-67
2023/02/10 13:59:24;;;;;;;9.02;5.78;;;;;;;;;;5052527;28;20021;-66
2023/02/10 14:02:01;;;;;;;7.38;4.95;;;;;;;;;;5052712;28;20033;-66
2023/02/10 14:04:29;;;;;;;11.70;5.25;;;;;;;;;;5052294;28;20029;-67
2023/02/10 14:06:56;;;;;;;7.60;4.90;;;;;;;;;;5052621;28;20036;-67
2023/02/10 14:09:31;;;;;;;8.13;4.68;;;;;;;;;;5052275;28;20078;-67
2023/02/10 14:11:58;;;;;;;11.73;5.60;;;;;;;;;;5053089;28;20025;-67
2023/02/10 14:14:29;;;;;;;8.80;5.38;;;;;;;;;;5052780;28;20546;-67
2023/02/10 14:17:04;;;;;;;7.68;5.25;;;;;;;;;;5036587;28;20029;-66
2023/02/10 14:19:35;;;;;;;8.02;5.40;;;;;;;;;;5052272;28;20025;-61
2023/02/10 14:22:01;;;;;;;7.40;4.80;;;;;;;;;;5052524;28;20059;-65
2023/02/10 14:24:32;;;;;;;8.98;5.00;;;;;;;;;;5051769;28;20099;-67
2023/02/10 14:27:00;;;;;;;7.32;4.47;;;;;;;;;;5051274;28;20036;-68
2023/02/10 14:29:27;;;;;;;7.25;4.55;;;;;;;;;;5049718;28;20108;-67
2023/02/10 14:31:55;;;;;;;7.05;4.95;;;;;;;;;;5050891;28;20086;-65
2023/02/10 14:34:26;;;;;;;8.10;4.50;;;;;;;;;;5050346;28;20403;-67
2023/02/10 14:36:56;;;;;;;8.57;5.05;;;;;;;;;;5051466;28;20053;-68
2023/02/10 14:39:23;;;;;;;8.32;4.63;;;;;;;;;;5051353;28;20025;-68
2023/02/10 14:41:50;;;;;;;6.03;3.95;;;;;;;;;;5051670;28;20020;-68
2023/02/10 14:44:24;;;;;;;6.38;4.60;;;;;;;;;;5049588;28;20667;-67
2023/02/10 14:46:50;;;;;;;7.38;5.15;;;;;;;;;;5049841;28;20056;-67
2023/02/10 14:49:18;;;;;;;8.02;4.53;;;;;;;;;;5050686;28;20062;-67